sensor_id;sensor_type;location;lat;lon;timestamp;pressure;altitude;pressure_sealevel;temperature;humidity
76794;BME280;65745;50.278;18.192;2023-02-05T00:00:33;101520.16;;;-1.22;73.41
76794;BME280;65745;50.278;18.192;2023-02-05T00:03:21;101518.06;;;-1.25;73.56
76794;BME280;65745;50.278;18.192;2023-02-05T00:05:50;101515.58;;;-1.22;73.33
76794;BME280;65745;50.278;18.192;2023-02-05T00:08:18;101514.59;;;-1.18;73.02
76794;BME280;65745;50.278;18.192;2023-02-05T00:10:51;101519.71;;;-1.12;73.17
76794;BME280;65745;50.278;18.192;2023-02-05T00:13:21;101514.30;;;-1.21;74.03
76794;BME280;65745;50.278;18.192;2023-02-05T00:15:50;101518.02;;;-1.29;74.76
76794;BME280;65745;50.278;18.192;2023-02-05T00:18:19;101516.55;;;-1.30;74.38
76794;BME280;65745;50.278;18.192;2023-02-05T00:20:48;101519.23;;;-1.36;74.47
76794;BME280;65745;50.278;18.192;2023-02-05T00:23:17;101517.10;;;-1.37;74.77
76794;BME280;65745;50.278;18.192;2023-02-05T00:25:46;101515.04;;;-1.41;75.58
76794;BME280;65745;50.278;18.192;2023-02-05T00:28:15;101514.78;;;-1.46;76.13
76794;BME280;65745;50.278;18.192;2023-02-05T00:30:44;101518.58;;;-1.40;76.27
76794;BME280;65745;50.278;18.192;2023-02-05T00:33:13;101517.87;;;-1.42;75.98
76794;BME280;65745;50.278;18.192;2023-02-05T00:35:43;101520.23;;;-1.43;76.09
76794;BME280;65745;50.278;18.192;2023-02-05T00:38:11;101518.54;;;-1.45;75.50
76794;BME280;65745;50.278;18.192;2023-02-05T00:40:40;101519.91;;;-1.48;75.39
76794;BME280;65745;50.278;18.192;2023-02-05T00:43:10;101516.64;;;-1.53;75.35
76794;BME280;65745;50.278;18.192;2023-02-05T00:45:49;101522.75;;;-1.56;75.86
76794;BME280;65745;50.278;18.192;2023-02-05T00:48:22;101524.17;;;-1.57;75.77
76794;BME280;65745;50.278;18.192;2023-02-05T00:50:55;101525.50;;;-1.56;76.34
76794;BME280;65745;50.278;18.192;2023-02-05T00:53:28;101521.49;;;-1.53;76.56
76794;BME280;65745;50.278;18.192;2023-02-05T00:56:00;101525.08;;;-1.56;76.89
76794;BME280;65745;50.278;18.192;2023-02-05T00:58:32;101523.84;;;-1.57;76.68
76794;BME280;65745;50.278;18.192;2023-02-05T01:01:06;101523.44;;;-1.59;76.63
76794;BME280;65745;50.278;18.192;2023-02-05T01:03:38;101526.66;;;-1.61;76.95
76794;BME280;65745;50.278;18.192;2023-02-05T01:06:11;101531.41;;;-1.64;76.77
76794;BME280;65745;50.278;18.192;2023-02-05T01:08:43;101526.48;;;-1.67;76.85
76794;BME280;65745;50.278;18.192;2023-02-05T01:11:15;101529.68;;;-1.61;76.80
76794;BME280;65745;50.278;18.192;2023-02-05T01:13:47;101530.36;;;-1.63;77.11
76794;BME280;65745;50.278;18.192;2023-02-05T01:16:19;101530.00;;;-1.63;77.14
76794;BME280;65745;50.278;18.192;2023-02-05T01:18:52;101528.15;;;-1.65;77.04
76794;BME280;65745;50.278;18.192;2023-02-05T01:21:26;101531.54;;;-1.67;77.50
76794;BME280;65745;50.278;18.192;2023-02-05T01:23:59;101529.91;;;-1.64;76.75
76794;BME280;65745;50.278;18.192;2023-02-05T01:26:31;101528.97;;;-1.65;76.27
76794;BME280;65745;50.278;18.192;2023-02-05T01:29:03;101529.29;;;-1.64;76.25
76794;BME280;65745;50.278;18.192;2023-02-05T01:31:36;101529.41;;;-1.61;76.50
76794;BME280;65745;50.278;18.192;2023-02-05T01:34:08;101526.80;;;-1.58;76.80
76794;BME280;65745;50.278;18.192;2023-02-05T01:36:40;101531.04;;;-1.54;77.12
76794;BME280;65745;50.278;18.192;2023-02-05T01:39:13;101527.52;;;-1.48;76.94
76794;BME280;65745;50.278;18.192;2023-02-05T01:41:45;101529.85;;;-1.54;77.17
76794;BME280;65745;50.278;18.192;2023-02-05T01:44:19;101527.65;;;-1.51;76.57
76794;BME280;65745;50.278;18.192;2023-02-05T01:46:55;101526.84;;;-1.49;76.21
76794;BME280;65745;50.278;18.192;2023-02-05T01:49:30;101523.81;;;-1.50;76.37
76794;BME280;65745;50.278;18.192;2023-02-05T01:52:08;101527.48;;;-1.52;76.48
76794;BME280;65745;50.278;18.192;2023-02-05T01:54:45;101531.90;;;-1.52;76.31
76794;BME280;65745;50.278;18.192;2023-02-05T01:57:21;101532.55;;;-1.52;76.16
76794;BME280;65745;50.278;18.192;2023-02-05T01:59:55;101533.27;;;-1.50;76.45
76794;BME280;65745;50.278;18.192;2023-02-05T02:02:28;101533.39;;;-1.47;76.81
76794;BME280;65745;50.278;18.192;2023-02-05T02:05:04;101531.54;;;-1.45;77.33
76794;BME280;65745;50.278;18.192;2023-02-05T02:07:39;101530.66;;;-1.42;77.43
76794;BME280;65745;50.278;18.192;2023-02-05T02:10:14;101531.98;;;-1.41;77.17
76794;BME280;65745;50.278;18.192;2023-02-05T02:12:49;101531.20;;;-1.43;76.99
76794;BME280;65745;50.278;18.192;2023-02-05T02:15:24;101528.67;;;-1.45;76.84
76794;BME280;65745;50.278;18.192;2023-02-05T02:18:01;101527.44;;;-1.49;76.70
76794;BME280;65745;50.278;18.192;2023-02-05T02:21:03;101523.98;;;-1.48;76.51
76794;BME280;65745;50.278;18.192;2023-02-05T02:23:50;101530.05;;;-1.52;76.54
76794;BME280;65745;50.278;18.192;2023-02-05T02:26:40;101533.06;;;-1.54;76.86
76794;BME280;65745;50.278;18.192;2023-02-05T02:29:24;101532.91;;;-1.51;76.89
76794;BME280;65745;50.278;18.192;2023-02-05T02:32:02;101534.60;;;-1.42;77.15
76794;BME280;65745;50.278;18.192;2023-02-05T02:34:40;101539.50;;;-1.47;77.11
76794;BME280;65745;50.278;18.192;2023-02-05T02:37:16;101536.92;;;-1.44;76.91
76794;BME280;65745;50.278;18.192;2023-02-05T02:39:58;101540.27;;;-1.42;76.58
76794;BME280;65745;50.278;18.192;2023-02-05T02:42:35;101533.98;;;-1.39;76.48
76794;BME280;65745;50.278;18.192;2023-02-05T02:45:13;101538.03;;;-1.37;76.13
76794;BME280;65745;50.278;18.192;2023-02-05T02:47:50;101539.02;;;-1.41;76.20
76794;BME280;65745;50.278;18.192;2023-02-05T02:50:26;101539.19;;;-1.43;76.27
76794;BME280;65745;50.278;18.192;2023-02-05T02:53:07;101538.17;;;-1.47;76.13
76794;BME280;65745;50.278;18.192;2023-02-05T02:55:42;101535.59;;;-1.45;76.33
76794;BME280;65745;50.278;18.192;2023-02-05T02:58:18;101536.56;;;-1.42;76.55
76794;BME280;65745;50.278;18.192;2023-02-05T03:00:55;101530.02;;;-1.40;77.02
76794;BME280;65745;50.278;18.192;2023-02-05T03:03:34;101530.08;;;-1.38;77.01
76794;BME280;65745;50.278;18.192;2023-02-05T03:06:10;101534.52;;;-1.37;76.63
76794;BME280;65745;50.278;18.192;2023-02-05T03:08:48;101529.48;;;-1.38;76.48
76794;BME280;65745;50.278;18.192;2023-02-05T03:11:21;101531.05;;;-1.40;76.22
76794;BME280;65745;50.278;18.192;2023-02-05T03:13:55;101530.20;;;-1.40;76.13
76794;BME280;65745;50.278;18.192;2023-02-05T03:16:29;101529.52;;;-1.40;75.79
76794;BME280;65745;50.278;18.192;2023-02-05T03:19:02;101528.67;;;-1.40;75.67
76794;BME280;65745;50.278;18.192;2023-02-05T03:21:40;101525.95;;;-1.42;75.49
76794;BME280;65745;50.278;18.192;2023-02-05T03:24:13;101526.90;;;-1.44;75.45
76794;BME280;65745;50.278;18.192;2023-02-05T03:26:46;101527.73;;;-1.48;75.49
76794;BME280;65745;50.278;18.192;2023-02-05T03:29:26;101529.36;;;-1.52;75.49
76794;BME280;65745;50.278;18.192;2023-02-05T03:32:07;101521.78;;;-1.56;75.51
76794;BME280;65745;50.278;18.192;2023-02-05T03:34:52;101521.77;;;-1.59;75.41
76794;BME280;65745;50.278;18.192;2023-02-05T03:37:30;101525.95;;;-1.60;75.68
76794;BME280;65745;50.278;18.192;2023-02-05T03:40:11;101525.85;;;-1.55;76.10
76794;BME280;65745;50.278;18.192;2023-02-05T03:42:56;101527.94;;;-1.51;76.36
76794;BME280;65745;50.278;18.192;2023-02-05T03:45:48;101532.31;;;-1.46;76.76
76794;BME280;65745;50.278;18.192;2023-02-05T03:48:40;101535.20;;;-1.42;76.52
76794;BME280;65745;50.278;18.192;2023-02-05T03:51:25;101537.61;;;-1.42;76.33
76794;BME280;65745;50.278;18.192;2023-02-05T03:54:10;101539.59;;;-1.44;76.34
76794;BME280;65745;50.278;18.192;2023-02-05T03:56:49;101545.59;;;-1.49;76.21
76794;BME280;65745;50.278;18.192;2023-02-05T03:59:26;101550.48;;;-1.54;75.94
76794;BME280;65745;50.278;18.192;2023-02-05T04:01:59;101554.42;;;-1.57;75.76
76794;BME280;65745;50.278;18.192;2023-02-05T04:04:37;101556.38;;;-1.61;75.70
76794;BME280;65745;50.278;18.192;2023-02-05T04:07:09;101556.59;;;-1.64;75.53
76794;BME280;65745;50.278;18.192;2023-02-05T04:09:43;101556.46;;;-1.73;75.57
76794;BME280;65745;50.278;18.192;2023-02-05T04:12:16;101555.13;;;-1.80;75.54
76794;BME280;65745;50.278;18.192;2023-02-05T04:14:49;101553.98;;;-1.87;75.57
76794;BME280;65745;50.278;18.192;2023-02-05T04:17:21;101548.36;;;-1.92;75.42
76794;BME280;65745;50.278;18.192;2023-02-05T04:19:54;101545.89;;;-1.97;75.53
76794;BME280;65745;50.278;18.192;2023-02-05T04:22:26;101546.30;;;-2.01;75.52
76794;BME280;65745;50.278;18.192;2023-02-05T04:24:59;101550.19;;;-2.03;75.69
76794;BME280;65745;50.278;18.192;2023-02-05T04:27:31;101554.06;;;-2.05;75.89
76794;BME280;65745;50.278;18.192;2023-02-05T04:30:05;101558.69;;;-2.04;76.44
76794;BME280;65745;50.278;18.192;2023-02-05T04:32:40;101558.77;;;-2.01;76.57
76794;BME280;65745;50.278;18.192;2023-02-05T04:35:12;101557.60;;;-2.00;76.21
76794;BME280;65745;50.278;18.192;2023-02-05T04:37:46;101560.27;;;-1.96;75.97
76794;BME280;65745;50.278;18.192;2023-02-05T04:40:19;101562.75;;;-1.92;75.61
76794;BME280;65745;50.278;18.192;2023-02-05T04:42:51;101565.00;;;-1.89;75.49
76794;BME280;65745;50.278;18.192;2023-02-05T04:45:24;101568.48;;;-1.90;75.24
76794;BME280;65745;50.278;18.192;2023-02-05T04:48:01;101574.52;;;-1.91;75.30
76794;BME280;65745;50.278;18.192;2023-02-05T04:50:33;101578.18;;;-1.94;75.35
76794;BME280;65745;50.278;18.192;2023-02-05T04:53:05;101584.08;;;-1.93;75.39
76794;BME280;65745;50.278;18.192;2023-02-05T04:55:37;101587.97;;;-1.91;75.11
76794;BME280;65745;50.278;18.192;2023-02-05T04:58:10;101592.88;;;-1.91;75.02
76794;BME280;65745;50.278;18.192;2023-02-05T05:00:42;101594.44;;;-1.91;75.03
76794;BME280;65745;50.278;18.192;2023-02-05T05:03:14;101598.98;;;-1.94;75.07
76794;BME280;65745;50.278;18.192;2023-02-05T05:05:46;101600.38;;;-1.97;75.21
76794;BME280;65745;50.278;18.192;2023-02-05T05:08:19;101607.36;;;-1.96;75.13
76794;BME280;65745;50.278;18.192;2023-02-05T05:10:51;101609.70;;;-1.97;75.83
76794;BME280;65745;50.278;18.192;2023-02-05T05:13:23;101605.17;;;-1.91;76.14
76794;BME280;65745;50.278;18.192;2023-02-05T05:15:56;101603.27;;;-1.83;76.46
76794;BME280;65745;50.278;18.192;2023-02-05T05:18:28;101609.52;;;-1.73;76.30
76794;BME280;65745;50.278;18.192;2023-02-05T05:21:01;101612.14;;;-1.66;75.91
76794;BME280;65745;50.278;18.192;2023-02-05T05:23:34;101615.77;;;-1.64;75.62
76794;BME280;65745;50.278;18.192;2023-02-05T05:26:07;101616.92;;;-1.64;75.37
76794;BME280;65745;50.278;18.192;2023-02-05T05:28:40;101615.76;;;-1.65;75.45
76794;BME280;65745;50.278;18.192;2023-02-05T05:31:15;101618.11;;;-1.66;75.28
76794;BME280;65745;50.278;18.192;2023-02-05T05:33:50;101618.48;;;-1.62;75.19
76794;BME280;65745;50.278;18.192;2023-02-05T05:36:22;101622.21;;;-1.62;75.21
76794;BME280;65745;50.278;18.192;2023-02-05T05:38:54;101619.85;;;-1.62;75.21
76794;BME280;65745;50.278;18.192;2023-02-05T05:41:46;101621.13;;;-1.62;75.07
76794;BME280;65745;50.278;18.192;2023-02-05T05:44:36;101628.61;;;-1.64;75.19
76794;BME280;65745;50.278;18.192;2023-02-05T05:47:08;101629.83;;;-1.63;74.98
76794;BME280;65745;50.278;18.192;2023-02-05T05:49:41;101636.92;;;-1.63;75.18
76794;BME280;65745;50.278;18.192;2023-02-05T05:52:13;101642.25;;;-1.64;75.21
76794;BME280;65745;50.278;18.192;2023-02-05T05:54:46;101648.64;;;-1.61;75.61
76794;BME280;65745;50.278;18.192;2023-02-05T05:57:18;101650.27;;;-1.60;76.15
76794;BME280;65745;50.278;18.192;2023-02-05T05:59:50;101654.77;;;-1.59;76.26
76794;BME280;65745;50.278;18.192;2023-02-05T06:02:22;101661.86;;;-1.55;75.76
76794;BME280;65745;50.278;18.192;2023-02-05T06:04:55;101664.77;;;-1.57;75.63
76794;BME280;65745;50.278;18.192;2023-02-05T06:07:27;101664.33;;;-1.56;75.33
76794;BME280;65745;50.278;18.192;2023-02-05T06:09:59;101665.98;;;-1.56;75.10
76794;BME280;65745;50.278;18.192;2023-02-05T06:12:31;101673.05;;;-1.60;75.05
76794;BME280;65745;50.278;18.192;2023-02-05T06:15:04;101680.72;;;-1.66;74.79
76794;BME280;65745;50.278;18.192;2023-02-05T06:17:36;101686.00;;;-1.73;74.84
76794;BME280;65745;50.278;18.192;2023-02-05T06:20:11;101689.90;;;-1.76;75.00
76794;BME280;65745;50.278;18.192;2023-02-05T06:22:43;101688.69;;;-1.80;74.82
76794;BME280;65745;50.278;18.192;2023-02-05T06:25:16;101687.95;;;-1.85;74.68
76794;BME280;65745;50.278;18.192;2023-02-05T06:27:48;101690.13;;;-1.88;75.09
76794;BME280;65745;50.278;18.192;2023-02-05T06:30:21;101694.64;;;-1.86;75.60
76794;BME280;65745;50.278;18.192;2023-02-05T06:32:53;101701.98;;;-1.82;75.73
76794;BME280;65745;50.278;18.192;2023-02-05T06:35:25;101706.45;;;-1.78;75.50
76794;BME280;65745;50.278;18.192;2023-02-05T06:37:57;101707.10;;;-1.71;74.99
76794;BME280;65745;50.278;18.192;2023-02-05T06:40:29;101704.54;;;-1.68;75.02
76794;BME280;65745;50.278;18.192;2023-02-05T06:43:01;101703.91;;;-1.69;74.87
76794;BME280;65745;50.278;18.192;2023-02-05T06:45:34;101702.58;;;-1.71;74.48
76794;BME280;65745;50.278;18.192;2023-02-05T06:48:07;101705.29;;;-1.78;74.59
76794;BME280;65745;50.278;18.192;2023-02-05T06:50:39;101700.70;;;-1.78;74.44
76794;BME280;65745;50.278;18.192;2023-02-05T06:53:11;101701.80;;;-1.77;74.56
76794;BME280;65745;50.278;18.192;2023-02-05T06:55:43;101704.20;;;-1.80;74.43
76794;BME280;65745;50.278;18.192;2023-02-05T06:58:16;101706.98;;;-1.83;74.53
76794;BME280;65745;50.278;18.192;2023-02-05T07:00:48;101709.80;;;-1.87;74.49
76794;BME280;65745;50.278;18.192;2023-02-05T07:03:20;101709.27;;;-1.92;74.48
76794;BME280;65745;50.278;18.192;2023-02-05T07:05:53;101725.60;;;-1.98;74.24
76794;BME280;65745;50.278;18.192;2023-02-05T07:08:25;101729.03;;;-2.02;74.39
76794;BME280;65745;50.278;18.192;2023-02-05T07:10:58;101737.25;;;-2.03;74.61
76794;BME280;65745;50.278;18.192;2023-02-05T07:13:30;101735.90;;;-2.04;74.80
76794;BME280;65745;50.278;18.192;2023-02-05T07:16:07;101738.79;;;-2.07;75.19
76794;BME280;65745;50.278;18.192;2023-02-05T07:18:39;101746.95;;;-2.02;76.00
76794;BME280;65745;50.278;18.192;2023-02-05T07:21:15;101748.05;;;-2.03;76.05
76794;BME280;65745;50.278;18.192;2023-02-05T07:23:47;101745.70;;;-2.04;76.31
76794;BME280;65745;50.278;18.192;2023-02-05T07:26:19;101748.55;;;-2.15;75.38
76794;BME280;65745;50.278;18.192;2023-02-05T07:28:54;101747.25;;;-2.18;75.49
76794;BME280;65745;50.278;18.192;2023-02-05T07:31:26;101753.53;;;-2.22;75.23
76794;BME280;65745;50.278;18.192;2023-02-05T07:33:59;101755.15;;;-2.26;75.08
76794;BME280;65745;50.278;18.192;2023-02-05T07:36:31;101754.95;;;-2.33;74.34
76794;BME280;65745;50.278;18.192;2023-02-05T07:39:04;101757.61;;;-2.34;74.66
76794;BME280;65745;50.278;18.192;2023-02-05T07:41:36;101757.02;;;-2.30;74.53
76794;BME280;65745;50.278;18.192;2023-02-05T07:44:09;101753.74;;;-2.19;74.28
76794;BME280;65745;50.278;18.192;2023-02-05T07:46:41;101754.52;;;-2.02;74.10
76794;BME280;65745;50.278;18.192;2023-02-05T07:49:14;101757.77;;;-1.71;73.87
76794;BME280;65745;50.278;18.192;2023-02-05T07:51:46;101760.84;;;-1.66;73.44
76794;BME280;65745;50.278;18.192;2023-02-05T07:54:18;101765.20;;;-1.64;73.58
76794;BME280;65745;50.278;18.192;2023-02-05T07:56:51;101774.83;;;-1.68;73.18
76794;BME280;65745;50.278;18.192;2023-02-05T07:59:23;101773.46;;;-1.65;73.65
76794;BME280;65745;50.278;18.192;2023-02-05T08:01:55;101774.70;;;-1.71;73.45
76794;BME280;65745;50.278;18.192;2023-02-05T08:04:27;101779.54;;;-1.54;74.46
76794;BME280;65745;50.278;18.192;2023-02-05T08:06:59;101779.98;;;-1.38;74.12
76794;BME280;65745;50.278;18.192;2023-02-05T08:09:32;101784.27;;;-1.37;73.76
76794;BME280;65745;50.278;18.192;2023-02-05T08:12:05;101782.88;;;-1.41;73.35
76794;BME280;65745;50.278;18.192;2023-02-05T08:14:37;101781.98;;;-1.47;72.82
76794;BME280;65745;50.278;18.192;2023-02-05T08:17:09;101781.87;;;-1.56;72.76
76794;BME280;65745;50.278;18.192;2023-02-05T08:19:41;101781.56;;;-1.61;72.66
76794;BME280;65745;50.278;18.192;2023-02-05T08:22:14;101784.39;;;-1.69;72.75
76794;BME280;65745;50.278;18.192;2023-02-05T08:24:46;101782.79;;;-1.71;72.76
76794;BME280;65745;50.278;18.192;2023-02-05T08:27:18;101778.79;;;-1.63;72.71
76794;BME280;65745;50.278;18.192;2023-02-05T08:29:51;101779.23;;;-1.54;72.35
76794;BME280;65745;50.278;18.192;2023-02-05T08:32:23;101785.40;;;-1.43;72.40
76794;BME280;65745;50.278;18.192;2023-02-05T08:34:55;101787.04;;;-1.31;72.39
76794;BME280;65745;50.278;18.192;2023-02-05T08:37:28;101788.28;;;-1.15;72.78
76794;BME280;65745;50.278;18.192;2023-02-05T08:40:01;101787.49;;;-0.99;73.25
76794;BME280;65745;50.278;18.192;2023-02-05T08:42:33;101788.77;;;-0.84;73.24
76794;BME280;65745;50.278;18.192;2023-02-05T08:45:07;101788.78;;;-0.71;72.77
76794;BME280;65745;50.278;18.192;2023-02-05T08:47:39;101792.95;;;-0.58;72.14
76794;BME280;65745;50.278;18.192;2023-02-05T08:50:12;101792.41;;;-0.42;72.05
76794;BME280;65745;50.278;18.192;2023-02-05T08:52:45;101796.23;;;-0.26;71.53
76794;BME280;65745;50.278;18.192;2023-02-05T08:55:18;101795.96;;;-0.09;71.30
76794;BME280;65745;50.278;18.192;2023-02-05T08:57:50;101794.54;;;-0.03;70.80
76794;BME280;65745;50.278;18.192;2023-02-05T09:00:23;101797.72;;;0.06;70.74
76794;BME280;65745;50.278;18.192;2023-02-05T09:02:55;101792.27;;;0.19;70.64
76794;BME280;65745;50.278;18.192;2023-02-05T09:05:28;101788.55;;;0.28;70.28
76794;BME280;65745;50.278;18.192;2023-02-05T09:08:00;101783.98;;;0.35;69.72
76794;BME280;65745;50.278;18.192;2023-02-05T09:10:32;101784.53;;;0.45;69.85
76794;BME280;65745;50.278;18.192;2023-02-05T09:13:04;101778.50;;;0.61;69.96
76794;BME280;65745;50.278;18.192;2023-02-05T09:15:41;101782.05;;;0.80;69.31
76794;BME280;65745;50.278;18.192;2023-02-05T09:18:14;101777.94;;;0.95;69.00
76794;BME280;65745;50.278;18.192;2023-02-05T09:20:49;101777.83;;;1.07;69.00
76794;BME280;65745;50.278;18.192;2023-02-05T09:23:24;101778.92;;;1.04;68.89
76794;BME280;65745;50.278;18.192;2023-02-05T09:25:58;101780.27;;;1.00;68.45
76794;BME280;65745;50.278;18.192;2023-02-05T09:28:30;101776.22;;;0.94;68.57
76794;BME280;65745;50.278;18.192;2023-02-05T09:31:07;101784.81;;;0.82;67.64
76794;BME280;65745;50.278;18.192;2023-02-05T09:33:39;101784.52;;;0.79;67.49
76794;BME280;65745;50.278;18.192;2023-02-05T09:36:14;101789.02;;;0.90;68.00
76794;BME280;65745;50.278;18.192;2023-02-05T09:38:47;101789.40;;;1.00;67.76
76794;BME280;65745;50.278;18.192;2023-02-05T09:41:41;101788.50;;;0.94;67.50
76794;BME280;65745;50.278;18.192;2023-02-05T09:44:19;101789.20;;;0.82;67.54
76794;BME280;65745;50.278;18.192;2023-02-05T09:46:59;101785.40;;;0.70;67.44
76794;BME280;65745;50.278;18.192;2023-02-05T09:49:36;101780.40;;;0.64;67.74
76794;BME280;65745;50.278;18.192;2023-02-05T09:52:16;101783.68;;;0.58;67.37
76794;BME280;65745;50.278;18.192;2023-02-05T09:54:51;101786.88;;;0.47;67.24
76794;BME280;65745;50.278;18.192;2023-02-05T09:57:32;101790.97;;;0.34;67.35
76794;BME280;65745;50.278;18.192;2023-02-05T10:00:10;101789.29;;;0.23;67.28
76794;BME280;65745;50.278;18.192;2023-02-05T10:02:52;101788.80;;;0.23;67.55
76794;BME280;65745;50.278;18.192;2023-02-05T10:05:30;101785.91;;;0.29;67.65
76794;BME280;65745;50.278;18.192;2023-02-05T10:08:10;101783.64;;;0.49;67.51
76794;BME280;65745;50.278;18.192;2023-02-05T10:10:46;101779.55;;;0.45;67.39
76794;BME280;65745;50.278;18.192;2023-02-05T10:13:31;101772.98;;;0.35;67.22
76794;BME280;65745;50.278;18.192;2023-02-05T10:19:12;101772.40;;;0.24;66.87
76794;BME280;65745;50.278;18.192;2023-02-05T10:22:00;101775.66;;;0.15;66.91
76794;BME280;65745;50.278;18.192;2023-02-05T10:25:03;101778.70;;;-0.02;65.87
76794;BME280;65745;50.278;18.192;2023-02-05T10:27:42;101779.15;;;0.12;67.47
76794;BME280;65745;50.278;18.192;2023-02-05T10:30:23;101775.68;;;0.28;67.21
76794;BME280;65745;50.278;18.192;2023-02-05T10:32:59;101776.89;;;0.36;67.14
76794;BME280;65745;50.278;18.192;2023-02-05T10:35:43;101782.49;;;0.37;67.26
76794;BME280;65745;50.278;18.192;2023-02-05T10:38:22;101785.63;;;0.33;66.10
76794;BME280;65745;50.278;18.192;2023-02-05T10:40:59;101788.36;;;0.28;66.17
76794;BME280;65745;50.278;18.192;2023-02-05T10:43:39;101788.52;;;0.22;66.76
76794;BME280;65745;50.278;18.192;2023-02-05T10:46:15;101788.29;;;0.13;66.30
76794;BME280;65745;50.278;18.192;2023-02-05T10:48:51;101792.38;;;0.03;66.75
76794;BME280;65745;50.278;18.192;2023-02-05T10:51:30;101787.35;;;0.00;66.70
76794;BME280;65745;50.278;18.192;2023-02-05T10:54:04;101784.17;;;-0.05;66.37
76794;BME280;65745;50.278;18.192;2023-02-05T10:56:42;101785.66;;;-0.07;66.29
76794;BME280;65745;50.278;18.192;2023-02-05T10:59:21;101787.41;;;-0.10;66.61
76794;BME280;65745;50.278;18.192;2023-02-05T11:02:00;101783.30;;;-0.11;66.48
76794;BME280;65745;50.278;18.192;2023-02-05T11:04:38;101782.92;;;-0.09;66.55
76794;BME280;65745;50.278;18.192;2023-02-05T11:07:15;101781.27;;;-0.05;66.63
76794;BME280;65745;50.278;18.192;2023-02-05T11:09:50;101780.36;;;-0.06;66.76
76794;BME280;65745;50.278;18.192;2023-02-05T11:12:28;101783.90;;;-0.08;66.51
76794;BME280;65745;50.278;18.192;2023-02-05T11:15:02;101781.73;;;-0.13;66.33
76794;BME280;65745;50.278;18.192;2023-02-05T11:17:37;101779.08;;;-0.25;65.92
76794;BME280;65745;50.278;18.192;2023-02-05T11:20:24;101778.23;;;-0.34;66.04
76794;BME280;65745;50.278;18.192;2023-02-05T11:23:16;101776.23;;;-0.37;66.50
76794;BME280;65745;50.278;18.192;2023-02-05T11:25:52;101773.38;;;-0.42;66.25
76794;BME280;65745;50.278;18.192;2023-02-05T11:28:27;101768.48;;;-0.50;66.47
76794;BME280;65745;50.278;18.192;2023-02-05T11:31:19;101769.48;;;-0.52;66.39
76794;BME280;65745;50.278;18.192;2023-02-05T11:34:08;101764.05;;;-0.52;65.81
76794;BME280;65745;50.278;18.192;2023-02-05T11:36:51;101769.92;;;-0.54;66.00
76794;BME280;65745;50.278;18.192;2023-02-05T11:39:30;101768.08;;;-0.57;65.42
76794;BME280;65745;50.278;18.192;2023-02-05T11:42:15;101763.33;;;-0.58;65.88
76794;BME280;65745;50.278;18.192;2023-02-05T11:44:54;101767.98;;;-0.64;65.39
76794;BME280;65745;50.278;18.192;2023-02-05T11:47:30;101768.91;;;-0.65;65.94
76794;BME280;65745;50.278;18.192;2023-02-05T11:50:04;101771.30;;;-0.65;65.48
76794;BME280;65745;50.278;18.192;2023-02-05T11:52:38;101771.35;;;-0.66;65.64
76794;BME280;65745;50.278;18.192;2023-02-05T11:55:24;101774.32;;;-0.68;65.56
76794;BME280;65745;50.278;18.192;2023-02-05T11:58:01;101770.52;;;-0.71;65.79
76794;BME280;65745;50.278;18.192;2023-02-05T12:00:34;101772.50;;;-0.71;65.80
76794;BME280;65745;50.278;18.192;2023-02-05T12:03:16;101774.66;;;-0.72;65.53
76794;BME280;65745;50.278;18.192;2023-02-05T12:05:53;101775.55;;;-0.73;65.26
76794;BME280;65745;50.278;18.192;2023-02-05T12:08:35;101775.09;;;-0.73;64.97
76794;BME280;65745;50.278;18.192;2023-02-05T12:14:34;101778.83;;;-0.73;64.63
76794;BME280;65745;50.278;18.192;2023-02-05T12:20:14;101779.71;;;-0.65;64.56
76794;BME280;65745;50.278;18.192;2023-02-05T12:23:03;101778.19;;;-0.63;64.56
76794;BME280;65745;50.278;18.192;2023-02-05T12:25:43;101775.52;;;-0.66;64.16
76794;BME280;65745;50.278;18.192;2023-02-05T12:28:27;101776.34;;;-0.61;64.92
76794;BME280;65745;50.278;18.192;2023-02-05T12:31:10;101778.39;;;-0.59;64.82
76794;BME280;65745;50.278;18.192;2023-02-05T12:34:10;101782.55;;;-0.62;64.61
76794;BME280;65745;50.278;18.192;2023-02-05T12:36:57;101784.15;;;-0.68;64.33
76794;BME280;65745;50.278;18.192;2023-02-05T12:39:39;101781.62;;;-0.68;64.59
76794;BME280;65745;50.278;18.192;2023-02-05T12:42:25;101783.70;;;-0.69;64.41
76794;BME280;65745;50.278;18.192;2023-02-05T12:45:23;101780.79;;;-0.73;64.38
76794;BME280;65745;50.278;18.192;2023-02-05T12:48:09;101775.71;;;-0.77;64.02
76794;BME280;65745;50.278;18.192;2023-02-05T12:51:00;101772.44;;;-0.76;64.48
76794;BME280;65745;50.278;18.192;2023-02-05T12:53:53;101768.71;;;-0.77;64.21
76794;BME280;65745;50.278;18.192;2023-02-05T12:56:46;101770.02;;;-0.81;64.13
76794;BME280;65745;50.278;18.192;2023-02-05T12:59:30;101766.80;;;-0.85;64.15
76794;BME280;65745;50.278;18.192;2023-02-05T13:02:13;101768.64;;;-0.87;64.26
76794;BME280;65745;50.278;18.192;2023-02-05T13:04:53;101771.52;;;-0.87;64.47
76794;BME280;65745;50.278;18.192;2023-02-05T13:07:31;101774.58;;;-0.89;64.25
76794;BME280;65745;50.278;18.192;2023-02-05T13:10:03;101772.18;;;-0.89;64.44
76794;BME280;65745;50.278;18.192;2023-02-05T13:12:40;101769.09;;;-0.90;64.27
76794;BME280;65745;50.278;18.192;2023-02-05T13:15:19;101765.27;;;-0.91;64.48
76794;BME280;65745;50.278;18.192;2023-02-05T13:17:59;101762.33;;;-0.91;64.49
76794;BME280;65745;50.278;18.192;2023-02-05T13:20:38;101756.16;;;-0.91;64.53
76794;BME280;65745;50.278;18.192;2023-02-05T13:23:30;101755.73;;;-0.98;64.62
76794;BME280;65745;50.278;18.192;2023-02-05T13:26:29;101755.23;;;-1.00;65.00
76794;BME280;65745;50.278;18.192;2023-02-05T13:29:24;101753.48;;;-1.06;64.87
76794;BME280;65745;50.278;18.192;2023-02-05T13:31:59;101756.61;;;-1.07;64.68
76794;BME280;65745;50.278;18.192;2023-02-05T13:34:45;101754.05;;;-1.05;64.68